createdAt,value
2023-02-02T07:11:58.475Z,16.40
2023-02-02T07:14:27.654Z,20.10
2023-02-02T07:16:55.593Z,23.20
2023-02-02T07:19:23.569Z,24.00
2023-02-02T07:21:51.497Z,25.90
2023-02-02T07:24:19.326Z,23.20
2023-02-02T07:26:47.327Z,20.50
2023-02-02T07:29:15.344Z,28.40
2023-02-02T07:31:43.452Z,25.30
2023-02-02T07:34:11.440Z,17.50
2023-02-02T07:36:39.434Z,27.10
2023-02-02T07:39:07.478Z,25.30
2023-02-02T07:41:36.709Z,26.10
2023-02-02T07:44:05.599Z,28.40
2023-02-02T07:46:33.864Z,28.50
2023-02-02T07:49:01.883Z,22.90
2023-02-02T07:51:30.081Z,25.10
2023-02-02T07:53:59.208Z,23.50
2023-02-02T07:56:35.688Z,22.00
2023-02-02T08:02:57.151Z,25.40
2023-02-02T08:05:25.742Z,23.80
2023-02-02T08:07:54.123Z,27.40
2023-02-02T08:10:22.567Z,28.80
2023-02-02T08:12:51.399Z,31.00
2023-02-02T08:15:19.512Z,28.40
2023-02-02T08:17:47.790Z,30.50
2023-02-02T08:20:16.311Z,27.60
2023-02-02T08:22:44.431Z,29.30
2023-02-02T08:25:12.962Z,36.80
2023-02-02T08:27:44.966Z,68.80
2023-02-02T08:30:13.496Z,32.30
2023-02-02T08:32:41.509Z,33.10
2023-02-02T08:35:09.680Z,32.70
2023-02-02T08:37:37.925Z,35.80
2023-02-02T08:40:06.937Z,38.70
2023-02-02T08:42:36.432Z,33.20
2023-02-02T08:46:01.170Z,34.60
2023-02-02T08:48:09.547Z,40.00
2023-02-02T08:50:39.878Z,40.70
2023-02-02T08:53:09.347Z,45.30
2023-02-02T08:55:40.090Z,54.10
2023-02-02T08:58:09.760Z,49.60
2023-02-02T09:00:41.583Z,55.70
2023-02-02T09:03:25.715Z,63.10
2023-02-02T09:05:54.943Z,77.50
2023-02-02T09:08:23.706Z,75.00
2023-02-02T09:10:53.735Z,175.80
2023-02-02T09:13:23.972Z,87.10
2023-02-02T09:15:53.659Z,93.10
2023-02-02T09:18:22.791Z,77.30
2023-02-02T09:20:53.857Z,78.20
2023-02-02T09:23:26.132Z,73.20
2023-02-02T09:26:18.159Z,57.50
2023-02-02T09:29:14.385Z,59.90
2023-02-02T09:31:57.323Z,79.90
2023-02-02T09:34:45.743Z,64.50
2023-02-02T09:37:19.771Z,65.70
2023-02-02T09:43:12.011Z,115.90
2023-02-02T09:46:16.473Z,66.70
2023-02-02T09:49:17.542Z,174.80
2023-02-02T09:52:05.111Z,405.40
2023-02-02T10:03:00.733Z,130.40
2023-02-02T10:09:12.251Z,32.40
2023-02-02T10:11:46.766Z,32.40
2023-02-02T10:14:23.127Z,41.80
2023-02-02T10:16:55.606Z,66.20
2023-02-02T10:19:26.222Z,43.30
2023-02-02T10:22:24.594Z,31.00
2023-02-02T10:24:52.549Z,27.90
2023-02-02T10:27:40.193Z,32.40
2023-02-02T10:30:17.389Z,21.20
2023-02-02T10:33:01.548Z,19.40
2023-02-02T10:35:49.892Z,12.00
2023-02-02T10:38:33.884Z,12.20
2023-02-02T10:41:13.952Z,14.10
2023-02-02T10:43:41.834Z,11.10
2023-02-02T10:46:26.228Z,10.00
2023-02-02T10:49:23.635Z,9.30
2023-02-02T10:52:10.761Z,6.00
2023-02-02T10:54:55.317Z,10.80
2023-02-02T10:57:54.272Z,8.30
2023-02-02T11:00:36.024Z,7.80
2023-02-02T11:03:04.495Z,7.60
2023-02-02T11:05:36.434Z,5.80
2023-02-02T11:08:15.678Z,8.00
2023-02-02T11:10:45.293Z,8.90
2023-02-02T11:13:21.757Z,8.60
2023-02-02T11:15:49.656Z,8.40
2023-02-02T11:18:30.914Z,7.40
2023-02-02T11:20:58.967Z,9.50
2023-02-02T11:23:28.210Z,7.80
2023-02-02T11:26:01.535Z,7.90
2023-02-02T11:28:35.885Z,4.20
2023-02-02T11:31:14.676Z,6.30
2023-02-02T11:33:42.666Z,5.70
2023-02-02T11:36:26.968Z,6.10
2023-02-02T11:39:16.305Z,7.60
2023-02-02T11:41:44.757Z,6.60
2023-02-02T11:44:26.489Z,5.50
2023-02-02T11:46:55.000Z,6.40
2023-02-02T11:49:24.244Z,2.90
2023-02-02T11:52:00.151Z,6.00
2023-02-02T11:54:31.478Z,5.20
2023-02-02T11:57:07.615Z,4.60
2023-02-02T11:59:40.444Z,3.40
2023-02-02T12:02:20.698Z,3.90
2023-02-02T12:04:51.804Z,5.40
2023-02-02T12:07:27.514Z,6.80
2023-02-02T12:10:13.641Z,4.00
2023-02-02T12:13:10.720Z,3.50
2023-02-02T12:15:38.714Z,5.10
2023-02-02T12:18:34.269Z,3.40
2023-02-02T12:21:06.516Z,4.30
2023-02-02T12:24:11.134Z,5.50
2023-02-02T12:26:40.760Z,4.30
2023-02-02T12:29:27.735Z,4.50
2023-02-02T12:32:20.449Z,4.20
2023-02-02T12:35:10.667Z,4.40
2023-02-02T12:38:14.238Z,8.20
2023-02-02T12:40:50.967Z,3.20
2023-02-02T12:43:33.078Z,3.70
2023-02-02T12:46:26.859Z,6.20
2023-02-02T12:49:03.576Z,5.10
2023-02-02T12:51:55.550Z,4.10
2023-02-02T12:54:44.028Z,4.50
2023-02-02T12:57:26.948Z,3.70
2023-02-02T13:00:04.254Z,5.80
2023-02-02T13:02:50.404Z,5.20
2023-02-02T13:05:24.532Z,3.40
2023-02-02T13:07:58.350Z,5.30
2023-02-02T13:10:35.774Z,3.00
2023-02-02T13:13:25.505Z,5.00
2023-02-02T13:15:59.395Z,5.40
2023-02-02T13:18:32.012Z,8.20
2023-02-02T13:21:07.011Z,4.90
2023-02-02T13:23:44.990Z,4.50
2023-02-02T13:26:20.378Z,6.40
2023-02-02T13:28:52.724Z,3.50
2023-02-02T13:31:49.083Z,7.30
2023-02-02T13:34:24.064Z,5.90
2023-02-02T13:36:59.817Z,4.00
2023-02-02T13:39:36.647Z,4.60
2023-02-02T13:42:08.442Z,5.30
2023-02-02T13:44:42.209Z,6.30
2023-02-02T13:47:27.390Z,104.30
2023-02-02T13:50:03.576Z,45.80
2023-02-02T13:53:00.972Z,8.70
2023-02-02T13:55:38.793Z,21.20
2023-02-02T13:58:28.485Z,5.10
2023-02-02T14:01:05.688Z,10.60
2023-02-02T14:03:38.570Z,10.00
2023-02-02T14:06:18.419Z,9.00
2023-02-02T14:08:56.635Z,8.80
2023-02-02T14:11:34.532Z,8.90
2023-02-02T14:14:21.272Z,5.00
2023-02-02T14:16:52.084Z,8.60
2023-02-02T14:19:28.800Z,5.20
2023-02-02T14:22:01.461Z,4.00
2023-02-02T14:24:36.971Z,9.30
2023-02-02T14:27:08.203Z,5.80
2023-02-02T14:29:37.506Z,10.10
2023-02-02T14:32:23.945Z,7.10
2023-02-02T14:34:53.404Z,5.70
2023-02-02T14:37:24.083Z,3.80
2023-02-02T14:40:07.356Z,4.00
2023-02-02T14:42:39.007Z,5.90
2023-02-02T14:45:12.154Z,5.10
2023-02-02T14:48:23.276Z,4.40
2023-02-02T14:50:58.336Z,4.40
2023-02-02T14:53:31.123Z,5.10
2023-02-02T14:56:09.632Z,7.90
2023-02-02T14:58:43.963Z,4.60
2023-02-02T15:01:19.876Z,5.50
2023-02-02T15:03:57.098Z,3.30
2023-02-02T15:06:33.784Z,5.90
2023-02-02T15:09:20.483Z,3.80
2023-02-02T15:12:01.851Z,4.10
2023-02-02T15:14:49.891Z,3.30
2023-02-02T15:17:39.152Z,4.90
2023-02-02T15:20:25.858Z,4.90
2023-02-02T15:23:14.723Z,4.60
2023-02-02T15:25:52.531Z,4.90
2023-02-02T15:28:37.302Z,3.50
2023-02-02T15:44:44.889Z,5.50
2023-02-02T15:47:17.006Z,6.40
2023-02-02T15:49:46.029Z,4.50
2023-02-02T15:52:22.072Z,3.90
2023-02-02T15:54:58.911Z,4.60
2023-02-02T15:57:35.952Z,3.90
2023-02-02T16:00:31.920Z,5.50
2023-02-02T16:03:06.364Z,4.40
2023-02-02T16:05:37.762Z,4.80
2023-02-02T16:08:14.035Z,5.60
2023-02-02T16:10:43.654Z,3.10
2023-02-02T16:13:26.405Z,5.40
2023-02-02T16:16:00.000Z,5.70
2023-02-02T16:18:29.451Z,2.80
2023-02-02T16:21:00.939Z,5.80
2023-02-02T16:23:33.451Z,7.30
2023-02-02T16:26:05.005Z,5.40
2023-02-02T16:28:34.478Z,3.90
2023-02-02T16:31:03.349Z,3.80
2023-02-02T16:33:57.625Z,5.10
2023-02-02T16:36:29.541Z,4.60
2023-02-02T16:38:59.488Z,4.90
2023-02-02T16:41:36.385Z,3.60
2023-02-02T16:44:19.048Z,5.00
2023-02-02T16:46:50.142Z,5.90
2023-02-02T16:49:23.954Z,6.60
2023-02-02T16:52:19.259Z,6.30
2023-02-02T16:54:56.166Z,5.00
2023-02-02T16:57:28.704Z,4.30
2023-02-02T17:00:01.040Z,5.70
2023-02-02T17:02:37.285Z,5.00
2023-02-02T17:05:17.094Z,5.70
2023-02-02T17:07:54.503Z,3.10
2023-02-02T17:10:26.395Z,4.30
2023-02-02T17:12:54.718Z,3.40
2023-02-02T17:15:32.722Z,3.30
2023-02-02T17:18:04.849Z,4.10
2023-02-02T17:20:35.612Z,3.70
2023-02-02T17:23:07.020Z,4.90
2023-02-02T17:25:40.191Z,8.80
2023-02-02T17:28:12.200Z,6.10
2023-02-02T17:30:42.613Z,6.30
2023-02-02T17:35:53.539Z,5.10
2023-02-02T17:38:23.925Z,4.60
2023-02-02T17:40:53.385Z,5.90
2023-02-02T17:43:22.100Z,5.00
2023-02-02T17:45:50.636Z,3.10
2023-02-02T17:48:19.069Z,6.70
2023-02-02T17:50:47.592Z,5.40
2023-02-02T17:53:19.460Z,5.90
2023-02-02T17:56:04.567Z,5.90
2023-02-02T17:58:32.842Z,4.60
2023-02-02T18:01:00.925Z,4.50
2023-02-02T18:03:34.415Z,5.30
2023-02-02T18:06:03.790Z,5.30
2023-02-02T18:08:33.359Z,6.50
2023-02-02T18:11:01.748Z,6.70
2023-02-02T18:13:29.715Z,6.00
2023-02-02T18:15:58.945Z,5.90
2023-02-02T18:18:27.559Z,6.90
2023-02-02T18:20:56.068Z,5.00
2023-02-02T18:23:24.377Z,4.80
2023-02-02T18:25:52.605Z,3.00
2023-02-02T18:28:21.308Z,3.50
2023-02-02T18:30:49.856Z,5.00
2023-02-02T18:33:18.108Z,4.00
2023-02-02T18:35:47.766Z,5.00
2023-02-02T18:38:16.115Z,7.30
2023-02-02T18:40:44.079Z,4.10
2023-02-02T18:43:12.136Z,3.50
2023-02-02T18:45:40.741Z,3.50
2023-02-02T18:48:09.497Z,3.90
2023-02-02T18:50:38.818Z,4.50
2023-02-02T18:53:06.836Z,3.60
2023-02-02T18:55:38.505Z,5.50
2023-02-02T18:58:06.807Z,4.20
2023-02-02T19:00:35.624Z,5.50
2023-02-02T19:03:03.739Z,3.80
2023-02-02T19:05:32.679Z,4.20
2023-02-02T19:08:00.879Z,3.40
2023-02-02T19:10:29.707Z,4.90
2023-02-02T19:13:19.268Z,5.00
2023-02-02T19:15:50.521Z,8.00
2023-02-02T19:18:22.098Z,11.70
2023-02-02T19:20:52.533Z,24.00
2023-02-02T19:23:23.832Z,171.00
2023-02-02T19:25:54.784Z,207.00
2023-02-02T19:28:27.223Z,263.40
2023-02-02T19:31:01.013Z,263.50
2023-02-02T19:33:42.094Z,146.10
2023-02-02T19:36:21.810Z,117.00
2023-02-02T19:38:55.885Z,124.20
2023-02-02T19:43:59.234Z,95.20
2023-02-02T19:46:31.182Z,69.20
2023-02-02T19:49:10.923Z,67.60
2023-02-02T19:51:41.741Z,44.20
2023-02-02T19:54:22.356Z,64.40
2023-02-02T19:56:54.121Z,40.80
2023-02-02T19:59:51.847Z,12.70
2023-02-02T20:02:29.144Z,15.30
2023-02-02T20:05:09.688Z,14.90
2023-02-02T20:07:40.225Z,15.50
2023-02-02T20:10:33.807Z,13.80
2023-02-02T20:13:11.311Z,11.40
2023-02-02T20:15:41.540Z,9.20
2023-02-02T20:18:18.414Z,20.20
2023-02-02T20:20:56.643Z,20.30
2023-02-02T20:23:46.797Z,11.20
2023-02-02T20:26:34.621Z,35.80
2023-02-02T20:29:18.266Z,15.10
2023-02-02T20:31:54.420Z,16.30
2023-02-02T20:34:32.167Z,13.10
2023-02-02T20:37:03.721Z,14.50
2023-02-02T20:39:41.801Z,14.20
2023-02-02T20:42:11.885Z,16.80
2023-02-02T20:44:42.704Z,12.20
2023-02-02T20:47:13.026Z,9.30
2023-02-02T20:49:43.557Z,13.40
2023-02-02T20:52:18.069Z,12.60
2023-02-02T20:54:49.975Z,13.20
2023-02-02T20:57:21.804Z,10.90
2023-02-02T20:59:53.214Z,11.70
2023-02-02T21:02:23.937Z,13.50
2023-02-02T21:04:53.923Z,20.20
2023-02-02T21:07:22.730Z,14.30
2023-02-02T21:09:51.047Z,13.90
2023-02-02T21:12:19.119Z,14.20
2023-02-02T21:14:47.006Z,16.50
2023-02-02T21:17:16.103Z,8.50
2023-02-02T21:19:45.104Z,10.50
2023-02-02T21:22:13.488Z,9.60
2023-02-02T21:24:42.022Z,14.30
2023-02-02T21:27:10.847Z,10.10
2023-02-02T21:29:39.347Z,9.60
2023-02-02T21:32:07.523Z,11.00
2023-02-02T21:34:35.593Z,10.20
2023-02-02T21:37:03.759Z,9.30
2023-02-02T21:39:34.748Z,8.70
2023-02-02T21:42:13.458Z,7.20
2023-02-02T21:44:44.900Z,9.50
2023-02-02T21:47:22.484Z,8.60
2023-02-02T21:49:50.561Z,9.60
2023-02-02T21:52:20.181Z,6.70
2023-02-02T21:54:48.853Z,9.60
2023-02-02T21:57:18.388Z,10.10
2023-02-02T21:59:48.191Z,10.70
2023-02-02T22:02:28.752Z,9.70
2023-02-02T22:04:58.381Z,7.60
2023-02-02T22:07:26.683Z,8.30
2023-02-02T22:09:55.190Z,6.00
2023-02-02T22:12:25.324Z,6.90
2023-02-02T22:14:59.513Z,8.80
2023-02-02T22:17:41.103Z,11.60
2023-02-02T22:20:15.687Z,11.90
2023-02-02T22:22:48.909Z,14.60
2023-02-02T22:25:17.873Z,14.20
2023-02-02T22:27:45.761Z,12.00
2023-02-02T22:30:33.622Z,10.70
2023-02-02T22:33:01.777Z,11.40
2023-02-02T22:35:31.015Z,14.30
2023-02-02T22:37:59.124Z,12.30
2023-02-02T22:40:27.828Z,15.20
2023-02-02T22:42:58.769Z,12.00
2023-02-02T22:45:27.152Z,12.60
2023-02-02T22:47:55.313Z,9.90
2023-02-02T22:50:27.359Z,12.30
2023-02-02T22:52:56.033Z,12.20
2023-02-02T22:55:24.533Z,11.60
2023-02-02T22:57:52.905Z,12.40
2023-02-02T23:00:24.482Z,12.60
2023-02-02T23:02:53.963Z,10.40
2023-02-02T23:05:23.372Z,15.00
2023-02-02T23:07:52.636Z,11.10
2023-02-02T23:10:26.855Z,10.40
2023-02-02T23:12:56.166Z,12.50
2023-02-02T23:15:24.323Z,10.80
2023-02-02T23:17:53.821Z,11.10
2023-02-02T23:20:22.109Z,12.00
2023-02-02T23:22:50.918Z,11.00
2023-02-02T23:25:18.933Z,13.00
2023-02-02T23:27:47.062Z,12.80
2023-02-02T23:30:15.395Z,15.70
2023-02-02T23:32:43.495Z,13.20
2023-02-02T23:35:11.973Z,14.60
2023-02-02T23:37:39.843Z,12.10
2023-02-02T23:40:09.049Z,13.20
2023-02-02T23:42:37.176Z,15.60
2023-02-02T23:45:06.408Z,13.20
2023-02-02T23:47:35.630Z,10.50
2023-02-02T23:50:06.490Z,10.80
2023-02-02T23:52:35.683Z,12.10
2023-02-02T23:55:04.657Z,12.20
2023-02-02T23:57:32.897Z,12.90
